This is the latest recevied weather packets stored in our database for station/object KF7IOR. If no packets are shown the sender has not sent any weather packets the latest 10 day(s).
| Time | Temp. | Humidity | Pressure | Rain* | Wind** | Luminosity | Snow |
|---|---|---|---|---|---|---|---|
| 1778033747 | 17.78° C | 66% | 1014.7 hPa | 0 mm | - | 54 W/m² | - |
| 1778032235 | 17.78° C | 66% | 1014.6 hPa | 0 mm | - | 93 W/m² | - |
| 1778030170 | 18.33° C | 66% | 1014.8 hPa | 0 mm | - | 251 W/m² | - |
| 1778022637 | 17.78° C | 68% | 1015.5 hPa | 0 mm | - | 207 W/m² | - |
| 1778021734 | 17.22° C | 69% | 1015.5 hPa | 0 mm | - | 232 W/m² | - |
| 1778019935 | 17.22° C | 70% | 1015.7 hPa | 0 mm | - | 190 W/m² | - |
| 1778019635 | 17.22° C | 71% | 1015.8 hPa | 0 mm | - | 179 W/m² | - |
| 1778019036 | 17.22° C | 71% | 1015.8 hPa | 0 mm | - | 174 W/m² | - |
| 1778018734 | 17.22° C | 70% | 1015.8 hPa | 0 mm | - | 171 W/m² | - |
| 1778018135 | 17.22° C | 70% | 1015.8 hPa | 0 mm | - | 195 W/m² | - |
| 1778017837 | 17.22° C | 69% | 1015.9 hPa | 0 mm | - | 213 W/m² | - |
| 1778016935 | 17.22° C | 70% | 1015.9 hPa | 0 mm | - | 260 W/m² | - |
| 1778016335 | 17.22° C | 70% | 1015.9 hPa | 0 mm | - | 257 W/m² | - |
| 1778015743 | 17.22° C | 72% | 1015.9 hPa | 0 mm | - | 294 W/m² | - |
| 1778014847 | 16.11° C | 72% | 1016 hPa | 0 mm | - | 278 W/m² | - |
| 1778012436 | 16.11° C | 73% | 1016.2 hPa | 0 mm | - | 93 W/m² | - |
| 1778010635 | 17.22° C | 70% | 1016.2 hPa | 0 mm | - | 429 W/m² | - |
| 1778009135 | 16.11° C | 71% | 1016.3 hPa | 0 mm | - | 302 W/m² | - |
| 1778008555 | 16.11° C | 73% | 1016.3 hPa | 0 mm | - | 364 W/m² | - |
| 1778005841 | 15° C | 80% | 1016.3 hPa | 0 mm | - | 197 W/m² | - |
| 1778004054 | 14.44° C | 78% | 1016.2 hPa | 0 mm | - | 127 W/m² | - |
| 1778003734 | 14.44° C | 79% | 1016.2 hPa | 0 mm | - | 113 W/m² | - |
| 1778003434 | 14.44° C | 79% | 1016.2 hPa | 0 mm | - | 100 W/m² | - |
| 1778001635 | 13.89° C | 81% | 1016.1 hPa | 0 mm | - | 86 W/m² | - |
| 1778001345 | 13.89° C | 81% | 1016.1 hPa | 0 mm | - | 83 W/m² | - |
* Rain latest hour (hover to see other rain measurements)
** Current wind speed in m/s (hover to see current wind gust speed)